createdAt,value
2019-06-20T00:00:32.285Z,79.86
2019-06-20T00:03:01.634Z,78.68
2019-06-20T00:05:31.190Z,78.68
2019-06-20T00:08:00.626Z,79.42
2019-06-20T00:10:30.036Z,79.23
2019-06-20T00:13:00.729Z,79.16
2019-06-20T00:15:30.315Z,79.16
2019-06-20T00:17:59.764Z,79.23
2019-06-20T00:20:29.224Z,78.58
2019-06-20T00:22:58.464Z,78.58
2019-06-20T00:25:27.890Z,78.58
2019-06-20T00:27:57.341Z,78.91
2019-06-20T00:30:28.213Z,79.52
2019-06-20T00:32:57.614Z,79.67
2019-06-20T00:35:27.040Z,79.04
2019-06-20T00:37:56.464Z,78.60
2019-06-20T00:40:25.888Z,78.35
2019-06-20T00:42:55.243Z,78.68
2019-06-20T00:45:25.472Z,78.57
2019-06-20T00:47:55.006Z,79.61
2019-06-20T00:50:24.386Z,79.71
2019-06-20T00:52:53.726Z,80.07
2019-06-20T00:55:23.267Z,80.08
2019-06-20T00:57:52.700Z,80.48
2019-06-20T01:00:22.165Z,80.63
2019-06-20T01:02:51.591Z,81.05
2019-06-20T01:05:20.975Z,81.01
2019-06-20T01:07:50.389Z,80.42
2019-06-20T01:10:19.763Z,80.48
2019-06-20T01:12:49.227Z,80.08
2019-06-20T01:15:18.654Z,79.61
2019-06-20T01:17:48.077Z,79.35
2019-06-20T01:20:17.722Z,79.21
2019-06-20T01:22:47.143Z,79.24
2019-06-20T01:25:18.135Z,79.64
2019-06-20T01:27:47.568Z,79.34
2019-06-20T01:30:17.194Z,79.63
2019-06-20T01:32:46.611Z,79.85
2019-06-20T01:35:16.220Z,80.32
2019-06-20T01:37:45.618Z,80.32
2019-06-20T01:40:15.067Z,79.36
2019-06-20T01:42:44.482Z,79.78
2019-06-20T01:45:14.246Z,79.96
2019-06-20T01:47:43.674Z,80.15
2019-06-20T01:50:13.311Z,80.08
2019-06-20T01:52:42.731Z,80.26
2019-06-20T01:55:12.323Z,80.32
2019-06-20T01:57:41.682Z,81.08
2019-06-20T02:00:14.126Z,81.96
2019-06-20T02:02:43.551Z,81.93
2019-06-20T02:05:13.224Z,81.95
2019-06-20T02:07:42.699Z,82.06
2019-06-20T02:10:12.116Z,82.61
2019-06-20T02:12:41.558Z,83.13
2019-06-20T02:15:11.132Z,83.50
2019-06-20T02:17:40.535Z,83.76
2019-06-20T02:20:11.408Z,84.22
2019-06-20T02:22:40.870Z,83.98
2019-06-20T02:25:10.508Z,83.79
2019-06-20T02:27:39.972Z,83.65
2019-06-20T02:30:09.632Z,83.32
2019-06-20T02:32:39.020Z,83.80
2019-06-20T02:35:08.508Z,83.68
2019-06-20T02:37:37.993Z,83.41
2019-06-20T02:40:07.573Z,83.02
2019-06-20T02:42:36.948Z,82.82
2019-06-20T02:45:06.898Z,82.62
2019-06-20T02:47:36.355Z,82.67
2019-06-20T02:50:08.968Z,81.90
2019-06-20T02:52:38.715Z,81.68
2019-06-20T02:55:08.257Z,81.77
2019-06-20T02:57:37.690Z,81.69
2019-06-20T03:00:09.718Z,81.22
2019-06-20T03:02:39.253Z,80.63
2019-06-20T03:05:09.303Z,80.37
2019-06-20T03:07:38.730Z,79.28
2019-06-20T03:10:08.380Z,79.32
2019-06-20T03:12:37.807Z,78.97
2019-06-20T03:15:07.468Z,79.49
2019-06-20T03:17:36.816Z,79.20
2019-06-20T03:20:06.438Z,78.55
2019-06-20T03:22:35.925Z,78.50
2019-06-20T03:25:05.871Z,79.00
2019-06-20T03:27:35.360Z,79.07
2019-06-20T03:30:06.868Z,78.77
2019-06-20T03:32:36.312Z,78.17
2019-06-20T03:35:06.624Z,77.46
2019-06-20T03:37:36.607Z,74.71
2019-06-20T03:40:06.659Z,72.80
2019-06-20T03:42:36.052Z,67.99
2019-06-20T03:45:06.805Z,67.99
2019-06-20T03:47:35.995Z,64.57
2019-06-20T03:50:08.961Z,64.57
2019-06-20T03:52:38.227Z,63.26
2019-06-20T03:55:07.558Z,61.53
2019-06-20T03:57:36.647Z,61.54
2019-06-20T04:00:09.780Z,60.59
2019-06-20T04:02:38.914Z,60.01
2019-06-20T04:05:08.148Z,60.53
2019-06-20T04:10:41.336Z,61.69
2019-06-20T04:13:10.452Z,65.18
2019-06-20T04:15:39.618Z,65.99
2019-06-20T04:18:09.049Z,65.99
2019-06-20T04:20:38.595Z,66.40
2019-06-20T04:23:08.030Z,66.80
2019-06-20T04:25:37.402Z,66.48
2019-06-20T04:28:06.859Z,66.48
2019-06-20T04:30:36.250Z,65.84
2019-06-20T04:33:05.665Z,66.00
2019-06-20T04:35:35.154Z,65.39
2019-06-20T04:38:04.596Z,64.83
2019-06-20T04:40:36.187Z,64.83
2019-06-20T04:43:05.304Z,64.59
2019-06-20T04:45:42.077Z,64.36
2019-06-20T04:48:11.497Z,63.80
2019-06-20T04:50:40.669Z,63.80
2019-06-20T04:53:10.238Z,63.09
2019-06-20T04:55:39.679Z,63.09
2019-06-20T04:58:09.473Z,62.53
2019-06-20T05:00:38.659Z,61.07
2019-06-20T05:03:07.800Z,61.03
2019-06-20T05:05:37.252Z,60.43
2019-06-20T05:08:07.908Z,60.43
2019-06-20T05:10:37.023Z,59.43
2019-06-20T05:13:06.530Z,59.75
2019-06-20T05:15:51.614Z,59.75
2019-06-20T05:18:06.729Z,59.65
2019-06-20T05:20:35.895Z,60.56
2019-06-20T05:23:05.092Z,60.45
2019-06-20T05:25:34.534Z,60.45
2019-06-20T05:28:03.665Z,59.53
2019-06-20T05:30:33.091Z,60.48
2019-06-20T05:33:02.549Z,60.28
2019-06-20T05:35:31.757Z,59.67
2019-06-20T05:38:00.952Z,59.86
2019-06-20T05:40:30.067Z,59.86
2019-06-20T05:42:59.244Z,58.26
2019-06-20T05:45:28.483Z,57.94
2019-06-20T05:47:57.639Z,55.39
2019-06-20T05:50:26.825Z,55.27
2019-06-20T05:52:56.026Z,53.71
2019-06-20T05:55:25.217Z,53.54
2019-06-20T05:57:54.379Z,53.17
2019-06-20T06:00:24.028Z,52.00
2019-06-20T06:02:58.301Z,52.06
2019-06-20T06:05:26.837Z,51.27
2019-06-20T06:07:58.582Z,50.54
2019-06-20T06:10:29.567Z,50.46
2019-06-20T06:12:58.716Z,50.10
2019-06-20T06:15:32.735Z,49.46
2019-06-20T06:17:59.116Z,49.58
2019-06-20T06:20:28.426Z,49.96
2019-06-20T06:22:57.629Z,48.23
2019-06-20T06:25:29.454Z,48.45
2019-06-20T06:27:58.246Z,48.47
2019-06-20T06:30:28.594Z,47.94
2019-06-20T06:32:57.846Z,47.64
2019-06-20T06:35:27.132Z,47.35
2019-06-20T06:38:00.342Z,46.71
2019-06-20T06:40:32.295Z,47.41
2019-06-20T06:43:08.575Z,46.31
2019-06-20T06:45:37.815Z,46.70
2019-06-20T06:48:06.958Z,44.52
2019-06-20T06:50:36.200Z,47.23
2019-06-20T06:53:05.478Z,45.91
2019-06-20T06:55:34.769Z,45.18
2019-06-20T06:58:05.895Z,42.91
2019-06-20T07:03:27.373Z,44.04
2019-06-20T07:05:58.322Z,43.67
2019-06-20T07:08:27.486Z,43.44
2019-06-20T07:11:01.422Z,43.20
2019-06-20T07:13:27.772Z,42.70
2019-06-20T07:16:00.998Z,42.28
2019-06-20T07:18:32.952Z,41.70
2019-06-20T07:21:05.230Z,41.72
2019-06-20T07:23:34.416Z,43.27
2019-06-20T07:26:03.911Z,41.36
2019-06-20T07:28:34.394Z,40.94
2019-06-20T07:31:05.936Z,40.74
2019-06-20T07:33:35.066Z,40.71
2019-06-20T07:36:07.412Z,39.30
2019-06-20T07:38:36.540Z,39.62
2019-06-20T07:41:05.703Z,38.86
2019-06-20T07:43:37.926Z,39.06
2019-06-20T07:46:09.726Z,38.39
2019-06-20T07:48:38.838Z,38.31
2019-06-20T07:53:56.293Z,36.28
2019-06-20T07:56:29.790Z,37.16
2019-06-20T07:59:04.791Z,37.74
2019-06-20T08:01:40.924Z,34.87
2019-06-20T08:07:43.369Z,37.14
2019-06-20T08:10:16.790Z,35.06
2019-06-20T08:12:50.545Z,36.61
2019-06-20T08:15:20.267Z,36.11
2019-06-20T08:17:55.556Z,39.20
2019-06-20T08:20:25.899Z,37.37
2019-06-20T08:22:56.968Z,38.17
2019-06-20T08:25:26.314Z,34.39
2019-06-20T08:28:04.281Z,35.60
2019-06-20T08:30:35.412Z,36.55
2019-06-20T08:33:25.773Z,34.99
2019-06-20T08:36:00.402Z,36.57
2019-06-20T08:38:36.385Z,37.00
2019-06-20T08:41:07.261Z,35.93
2019-06-20T08:43:37.623Z,34.12
2019-06-20T08:46:10.417Z,33.23
2019-06-20T08:48:39.905Z,36.48
2019-06-20T08:51:09.422Z,32.47
2019-06-20T08:59:58.823Z,31.14
2019-06-20T09:02:30.156Z,31.10
2019-06-20T09:17:05.291Z,27.74
2019-06-20T09:28:16.688Z,28.49
2019-06-20T09:33:40.212Z,30.76
2019-06-20T09:42:56.444Z,28.98
2019-06-20T09:48:26.435Z,29.03
2019-06-20T09:50:58.711Z,28.34
2019-06-20T09:57:34.022Z,28.50
2019-06-20T10:11:18.722Z,27.13
2019-06-20T10:14:03.533Z,26.78
2019-06-20T10:16:45.333Z,27.43
2019-06-20T10:27:48.290Z,27.86
2019-06-20T10:30:35.271Z,27.53
2019-06-20T10:33:16.229Z,27.92
2019-06-20T10:36:17.377Z,26.98
2019-06-20T10:38:48.075Z,26.17
2019-06-20T10:47:52.483Z,25.29
2019-06-20T10:57:04.489Z,26.30
2019-06-20T10:59:52.586Z,26.12
2019-06-20T11:02:41.849Z,24.03
2019-06-20T11:11:14.517Z,24.25
2019-06-20T11:13:50.820Z,24.65
2019-06-20T11:16:19.017Z,25.53
2019-06-20T11:18:48.795Z,24.81
2019-06-20T11:21:39.793Z,24.64
2019-06-20T11:37:45.036Z,22.99
2019-06-20T11:40:18.562Z,25.11
2019-06-20T11:43:20.498Z,26.57
2019-06-20T11:46:00.244Z,23.50
2019-06-20T11:51:37.602Z,25.16
2019-06-20T11:57:14.792Z,22.44
2019-06-20T12:00:15.315Z,23.70
2019-06-20T12:05:38.448Z,24.25
2019-06-20T12:08:13.940Z,23.48
2019-06-20T12:11:10.533Z,25.09
2019-06-20T12:13:36.094Z,25.16
2019-06-20T12:26:02.226Z,23.95
2019-06-20T12:35:32.319Z,22.94
2019-06-20T12:38:50.894Z,22.98
2019-06-20T13:00:18.832Z,27.86
2019-06-20T13:02:57.317Z,25.59
2019-06-20T13:05:38.454Z,27.26
2019-06-20T13:08:13.653Z,26.35
2019-06-20T13:10:46.239Z,26.75
2019-06-20T13:20:14.667Z,27.35
2019-06-20T13:55:39.440Z,25.32
2019-06-20T13:58:42.396Z,23.98
2019-06-20T14:07:29.329Z,24.88
2019-06-20T14:09:58.399Z,24.47
2019-06-20T14:12:33.601Z,24.59
2019-06-20T14:15:06.147Z,24.63
2019-06-20T14:17:42.890Z,24.77
2019-06-20T14:20:18.686Z,23.04
2019-06-20T14:25:38.248Z,26.08
2019-06-20T14:28:45.970Z,25.75
2019-06-20T14:31:28.949Z,25.15
2019-06-20T14:40:28.209Z,26.75
2019-06-20T14:42:54.255Z,26.24
2019-06-20T14:48:34.166Z,26.38
2019-06-20T14:51:03.663Z,26.46
2019-06-20T14:54:04.407Z,26.37
2019-06-20T14:56:18.966Z,25.80
2019-06-20T15:01:33.710Z,26.74
2019-06-20T15:07:00.143Z,28.29
2019-06-20T15:09:32.841Z,29.45
2019-06-20T15:12:01.945Z,29.11
2019-06-20T15:14:49.417Z,28.36
2019-06-20T15:17:15.680Z,32.17
2019-06-20T15:19:46.136Z,28.68
2019-06-20T15:22:20.014Z,29.10
2019-06-20T15:24:51.745Z,30.66
2019-06-20T15:27:20.056Z,31.29
2019-06-20T15:29:50.464Z,33.07
2019-06-20T15:32:19.974Z,34.62
2019-06-20T15:34:53.234Z,36.17
2019-06-20T15:37:22.377Z,39.48
2019-06-20T15:39:52.106Z,40.63
2019-06-20T15:42:22.626Z,40.11
2019-06-20T15:44:51.871Z,40.09
2019-06-20T15:47:23.492Z,40.83
2019-06-20T15:49:52.858Z,40.81
2019-06-20T15:52:22.069Z,40.85
2019-06-20T15:54:51.381Z,39.94
2019-06-20T15:57:20.794Z,39.53
2019-06-20T15:59:50.165Z,39.35
2019-06-20T16:02:19.384Z,40.32
2019-06-20T16:04:48.989Z,40.68
2019-06-20T16:07:21.096Z,41.26
2019-06-20T16:09:50.282Z,41.81
2019-06-20T16:12:24.739Z,42.10
2019-06-20T16:14:53.671Z,42.58
2019-06-20T16:17:24.866Z,43.23
2019-06-20T16:19:54.173Z,43.78
2019-06-20T16:22:23.404Z,44.13
2019-06-20T16:24:53.328Z,44.10
2019-06-20T16:27:22.574Z,44.11
2019-06-20T16:29:51.757Z,44.11
2019-06-20T16:32:23.525Z,43.98
2019-06-20T16:34:52.648Z,44.47
2019-06-20T16:37:23.908Z,44.25
2019-06-20T16:39:53.254Z,43.60
2019-06-20T16:42:22.666Z,44.04
2019-06-20T16:44:53.495Z,43.30
2019-06-20T16:47:23.271Z,43.97
2019-06-20T16:49:52.671Z,43.81
2019-06-20T16:52:22.082Z,44.35
2019-06-20T16:54:51.433Z,44.67
2019-06-20T16:57:20.637Z,44.81
2019-06-20T16:59:49.719Z,45.12
2019-06-20T17:02:19.114Z,46.06
2019-06-20T17:04:48.939Z,45.73
2019-06-20T17:07:18.351Z,46.57
2019-06-20T17:09:50.606Z,47.72
2019-06-20T17:12:19.792Z,48.95
2019-06-20T17:14:48.977Z,50.02
2019-06-20T17:17:18.335Z,50.78
2019-06-20T17:19:50.219Z,52.12
2019-06-20T17:22:22.332Z,52.66
2019-06-20T17:24:51.789Z,53.54
2019-06-20T17:27:20.955Z,54.82
2019-06-20T17:29:50.057Z,55.31
2019-06-20T17:32:23.739Z,55.57
2019-06-20T17:34:55.348Z,56.95
2019-06-20T17:37:24.579Z,57.70
2019-06-20T17:39:53.892Z,58.32
2019-06-20T17:42:23.224Z,58.59
2019-06-20T17:44:52.491Z,59.34
2019-06-20T17:47:24.605Z,60.60
2019-06-20T17:49:54.232Z,59.75
2019-06-20T17:52:23.579Z,59.75
2019-06-20T17:54:54.677Z,58.80
2019-06-20T17:57:23.934Z,58.30
2019-06-20T17:59:53.205Z,58.54
2019-06-20T18:02:22.681Z,58.54
2019-06-20T18:04:51.812Z,58.58
2019-06-20T18:07:24.176Z,59.01
2019-06-20T18:09:53.734Z,58.44
2019-06-20T18:12:23.056Z,58.74
2019-06-20T18:14:52.335Z,58.05
2019-06-20T18:17:22.370Z,57.63
2019-06-20T18:19:52.088Z,57.43
2019-06-20T18:22:21.662Z,57.43
2019-06-20T18:24:51.215Z,58.14
2019-06-20T18:27:20.350Z,58.28
2019-06-20T18:29:52.642Z,58.41
2019-06-20T18:32:22.590Z,58.27
2019-06-20T18:35:01.486Z,58.35
2019-06-20T18:37:31.354Z,58.95
2019-06-20T18:39:54.943Z,58.63
2019-06-20T18:42:24.705Z,58.63
2019-06-20T18:44:54.176Z,58.63
2019-06-20T18:47:23.750Z,58.78
2019-06-20T18:49:53.461Z,58.71
2019-06-20T18:52:22.989Z,58.71
2019-06-20T18:54:52.585Z,59.07
2019-06-20T18:57:21.984Z,59.39
2019-06-20T18:59:51.622Z,59.55
2019-06-20T19:02:24.142Z,60.28
2019-06-20T19:04:53.588Z,60.28
2019-06-20T19:07:23.129Z,60.44
2019-06-20T19:09:53.169Z,60.50
2019-06-20T19:12:22.908Z,60.64
2019-06-20T19:14:52.428Z,61.32
2019-06-20T19:17:21.844Z,61.32
2019-06-20T19:19:51.761Z,61.69
2019-06-20T19:22:21.514Z,62.03
2019-06-20T19:24:51.422Z,62.53
2019-06-20T19:27:21.194Z,62.04
2019-06-20T19:29:51.276Z,62.35
2019-06-20T19:32:20.753Z,62.35
2019-06-20T19:35:01.374Z,62.19
2019-06-20T19:37:21.531Z,62.26
2019-06-20T19:39:50.906Z,62.26
2019-06-20T19:42:20.730Z,62.21
2019-06-20T19:44:50.179Z,62.25
2019-06-20T19:47:19.564Z,62.38
2019-06-20T19:49:48.926Z,62.03
2019-06-20T19:52:18.394Z,62.04
2019-06-20T19:54:47.815Z,62.15
2019-06-20T19:57:17.330Z,62.34
2019-06-20T19:59:46.781Z,62.34
2019-06-20T20:02:16.202Z,62.17
2019-06-20T20:04:45.695Z,62.19
2019-06-20T20:07:15.266Z,62.19
2019-06-20T20:09:44.711Z,62.65
2019-06-20T20:12:14.186Z,63.47
2019-06-20T20:14:44.748Z,63.33
2019-06-20T20:17:14.138Z,64.01
2019-06-20T20:19:43.517Z,63.31
2019-06-20T20:22:13.067Z,63.31
2019-06-20T20:24:42.507Z,64.45
2019-06-20T20:27:11.939Z,64.81
2019-06-20T20:29:41.426Z,65.00
2019-06-20T20:32:11.026Z,65.08
2019-06-20T20:34:40.567Z,65.08
2019-06-20T20:37:10.123Z,65.19
2019-06-20T20:39:39.899Z,65.83
2019-06-20T20:42:09.292Z,65.83
2019-06-20T20:44:38.740Z,66.31
2019-06-20T20:47:08.219Z,66.31
2019-06-20T20:49:37.644Z,66.40
2019-06-20T20:52:07.007Z,67.38
2019-06-20T20:54:36.468Z,67.46
2019-06-20T20:57:05.904Z,66.95
2019-06-20T20:59:35.352Z,67.64
2019-06-20T21:02:04.891Z,67.70
2019-06-20T21:04:34.324Z,67.40
2019-06-20T21:07:03.684Z,68.09
2019-06-20T21:09:34.452Z,68.02
2019-06-20T21:12:03.833Z,68.34
2019-06-20T21:14:33.287Z,67.53
2019-06-20T21:17:02.774Z,67.82
2019-06-20T21:19:32.195Z,67.95
2019-06-20T21:22:01.609Z,67.74
2019-06-20T21:24:31.111Z,67.74
2019-06-20T21:27:00.547Z,67.91
2019-06-20T21:29:29.987Z,68.71
2019-06-20T21:31:59.454Z,68.71
2019-06-20T21:34:28.885Z,68.52
2019-06-20T21:36:58.309Z,68.04
2019-06-20T21:39:27.692Z,68.04
2019-06-20T21:41:57.147Z,68.58
2019-06-20T21:44:26.496Z,68.37
2019-06-20T21:46:55.939Z,68.37
2019-06-20T21:49:25.400Z,69.10
2019-06-20T21:51:54.757Z,69.10
2019-06-20T21:54:24.186Z,68.64
2019-06-20T21:56:53.641Z,68.85
2019-06-20T21:59:23.024Z,68.80
2019-06-20T22:01:52.397Z,69.85
2019-06-20T22:04:21.855Z,69.54
2019-06-20T22:06:51.290Z,70.41
2019-06-20T22:09:20.700Z,69.98
2019-06-20T22:11:50.262Z,69.98
2019-06-20T22:14:19.699Z,70.00
2019-06-20T22:16:49.141Z,70.94
2019-06-20T22:19:18.619Z,71.57
2019-06-20T22:21:48.043Z,72.86
2019-06-20T22:24:17.477Z,72.67
2019-06-20T22:26:46.966Z,72.67
2019-06-20T22:29:16.419Z,73.08
2019-06-20T22:31:45.843Z,73.67
2019-06-20T22:34:15.369Z,74.06
2019-06-20T22:36:44.776Z,74.06
2019-06-20T22:39:14.205Z,74.42
2019-06-20T22:41:43.638Z,74.41
2019-06-20T22:44:13.080Z,74.26
2019-06-20T22:46:42.504Z,73.83
2019-06-20T22:49:12.022Z,73.88
2019-06-20T22:51:41.534Z,73.57
2019-06-20T22:54:10.897Z,74.34
2019-06-20T22:56:40.329Z,74.62
2019-06-20T22:59:09.789Z,75.08
2019-06-20T23:01:39.226Z,75.65
2019-06-20T23:04:08.711Z,75.69
2019-06-20T23:06:38.170Z,75.33
2019-06-20T23:09:08.150Z,75.11
2019-06-20T23:11:37.590Z,74.71
2019-06-20T23:14:07.024Z,75.15
2019-06-20T23:16:36.461Z,75.45
2019-06-20T23:19:05.948Z,74.71
2019-06-20T23:21:35.421Z,74.71
2019-06-20T23:24:04.844Z,75.60
2019-06-20T23:26:34.517Z,75.83
2019-06-20T23:29:21.481Z,76.62
2019-06-20T23:31:54.557Z,76.00
2019-06-20T23:34:24.011Z,75.57
2019-06-20T23:36:53.436Z,74.95
2019-06-20T23:39:22.916Z,75.66
2019-06-20T23:41:52.321Z,74.42
2019-06-20T23:44:21.759Z,74.42
2019-06-20T23:46:51.249Z,75.32
2019-06-20T23:49:20.685Z,75.54
2019-06-20T23:51:51.685Z,75.54
2019-06-20T23:54:21.153Z,75.39
2019-06-20T23:56:50.587Z,75.84
2019-06-20T23:59:20.018Z,76.52
